createdAt,value
2023-05-25T00:00:29.822Z,964.20
2023-05-25T00:01:03.014Z,964.31
2023-05-25T00:01:30.969Z,964.31
2023-05-25T00:02:02.076Z,964.20
2023-05-25T00:02:32.897Z,964.20
2023-05-25T00:03:03.990Z,964.51
2023-05-25T00:03:34.777Z,964.51
2023-05-25T00:04:06.288Z,964.31
2023-05-25T00:04:37.133Z,964.31
2023-05-25T00:05:08.031Z,964.20
2023-05-25T00:05:38.567Z,964.20
2023-05-25T00:06:09.666Z,964.20
2023-05-25T00:06:40.761Z,964.00
2023-05-25T00:07:11.791Z,964.00
2023-05-25T00:07:42.893Z,964.31
2023-05-25T00:08:13.923Z,964.31
2023-05-25T00:08:45.117Z,964.31
2023-05-25T00:09:15.793Z,964.31
2023-05-25T00:09:47.202Z,964.31
2023-05-25T00:10:18.510Z,964.31
2023-05-25T00:10:48.695Z,964.10
2023-05-25T00:11:20.139Z,964.10
2023-05-25T00:11:50.769Z,964.00
2023-05-25T00:12:21.715Z,964.00
2023-05-25T00:12:53.095Z,964.31
2023-05-25T00:13:23.784Z,964.31
2023-05-25T00:13:54.979Z,964.41
2023-05-25T00:14:25.753Z,964.41
2023-05-25T00:14:57.016Z,964.41
2023-05-25T00:15:28.820Z,964.41
2023-05-25T00:15:58.841Z,964.10
2023-05-25T00:16:29.874Z,964.10
2023-05-25T00:17:00.922Z,964.41
2023-05-25T00:17:32.053Z,964.41
2023-05-25T00:18:02.705Z,964.31
2023-05-25T00:18:33.724Z,964.31
2023-05-25T00:19:04.698Z,964.20
2023-05-25T00:19:35.971Z,964.20
2023-05-25T00:20:07.122Z,964.41
2023-05-25T00:20:37.806Z,964.41
2023-05-25T00:21:09.014Z,964.41
2023-05-25T00:21:39.715Z,964.41
2023-05-25T00:22:10.627Z,964.31
2023-05-25T00:22:42.025Z,964.20
2023-05-25T00:23:12.753Z,964.20
2023-05-25T00:23:44.438Z,964.41
2023-05-25T00:24:14.716Z,964.41
2023-05-25T00:24:45.892Z,964.00
2023-05-25T00:25:17.351Z,964.00
2023-05-25T00:25:47.769Z,964.20
2023-05-25T00:26:18.691Z,964.20
2023-05-25T00:26:49.825Z,964.10
2023-05-25T00:27:20.693Z,964.10
2023-05-25T00:27:51.905Z,964.41
2023-05-25T00:28:22.861Z,964.41
2023-05-25T00:28:53.778Z,964.10
2023-05-25T00:29:25.201Z,964.10
2023-05-25T00:29:55.781Z,964.10
2023-05-25T00:30:27.897Z,964.10
2023-05-25T00:30:57.741Z,964.10
2023-05-25T00:31:29.473Z,964.10
2023-05-25T00:31:59.797Z,964.10
2023-05-25T00:32:31.917Z,964.10
2023-05-25T00:33:02.003Z,964.10
2023-05-25T00:33:32.876Z,964.10
2023-05-25T00:34:03.901Z,963.90
2023-05-25T00:34:34.705Z,963.90
2023-05-25T00:35:05.943Z,964.20
2023-05-25T00:35:37.108Z,964.20
2023-05-25T00:36:08.044Z,964.10
2023-05-25T00:36:39.146Z,964.10
2023-05-25T00:37:09.755Z,964.10
2023-05-25T00:37:40.890Z,964.00
2023-05-25T00:38:12.322Z,964.00
2023-05-25T00:38:42.699Z,964.00
2023-05-25T00:39:13.789Z,964.00
2023-05-25T00:39:44.753Z,964.20
2023-05-25T00:40:16.142Z,964.20
2023-05-25T00:40:47.222Z,964.20
2023-05-25T00:41:17.818Z,964.20
2023-05-25T00:41:48.779Z,964.10
2023-05-25T00:42:19.855Z,964.10
2023-05-25T00:42:50.722Z,964.10
2023-05-25T00:43:21.765Z,964.10
2023-05-25T00:43:53.007Z,964.10
2023-05-25T00:44:23.998Z,964.10
2023-05-25T00:44:54.805Z,964.20
2023-05-25T00:45:26.655Z,964.20
2023-05-25T00:45:56.797Z,964.10
2023-05-25T00:46:27.864Z,964.10
2023-05-25T00:46:58.819Z,963.90
2023-05-25T00:47:29.813Z,963.90
2023-05-25T00:48:00.809Z,964.10
2023-05-25T00:48:32.013Z,964.10
2023-05-25T00:49:02.938Z,964.10
2023-05-25T00:49:33.903Z,964.10
2023-05-25T00:50:05.375Z,964.20
2023-05-25T00:50:35.759Z,964.20
2023-05-25T00:51:06.727Z,964.20
2023-05-25T00:51:38.008Z,964.20
2023-05-25T00:52:09.132Z,964.00
2023-05-25T00:52:39.876Z,964.00
2023-05-25T00:53:11.131Z,964.10
2023-05-25T00:53:41.790Z,964.31
2023-05-25T00:54:12.846Z,964.31
2023-05-25T00:54:44.438Z,964.00
2023-05-25T00:55:15.172Z,964.00
2023-05-25T00:55:45.912Z,964.10
2023-05-25T00:56:16.851Z,964.10
2023-05-25T00:56:47.863Z,964.00
2023-05-25T00:57:18.909Z,964.00
2023-05-25T00:57:49.887Z,964.00
2023-05-25T00:58:20.766Z,964.00
2023-05-25T00:58:51.891Z,963.90
2023-05-25T00:59:23.018Z,963.90
2023-05-25T00:59:54.235Z,964.00
2023-05-25T01:00:25.646Z,964.00
2023-05-25T01:00:56.169Z,964.10
2023-05-25T01:01:26.842Z,964.10
2023-05-25T01:01:57.947Z,963.90
2023-05-25T01:02:28.875Z,963.90
2023-05-25T01:03:01.095Z,964.20
2023-05-25T01:03:30.894Z,964.20
2023-05-25T01:04:02.934Z,964.10
2023-05-25T01:04:33.013Z,964.10
2023-05-25T01:05:04.170Z,964.10
2023-05-25T01:05:35.432Z,964.10
2023-05-25T01:06:05.882Z,964.00
2023-05-25T01:06:37.204Z,964.00
2023-05-25T01:07:08.214Z,964.20
2023-05-25T01:07:39.430Z,964.20
2023-05-25T01:08:10.628Z,964.00
2023-05-25T01:08:41.014Z,964.10
2023-05-25T01:09:11.858Z,964.10
2023-05-25T01:09:42.910Z,963.90
2023-05-25T01:10:14.334Z,963.90
2023-05-25T01:10:44.854Z,964.20
2023-05-25T01:11:16.212Z,964.20
2023-05-25T01:11:47.198Z,964.00
2023-05-25T01:12:17.901Z,964.00
2023-05-25T01:12:49.480Z,964.10
2023-05-25T01:13:20.319Z,964.10
2023-05-25T01:13:51.352Z,964.20
2023-05-25T01:14:22.008Z,964.20
2023-05-25T01:14:52.935Z,964.20
2023-05-25T01:15:24.664Z,964.20
2023-05-25T01:15:55.085Z,964.20
2023-05-25T01:16:26.154Z,964.20
2023-05-25T01:16:57.000Z,964.00
2023-05-25T01:17:28.378Z,964.00
2023-05-25T01:17:58.972Z,964.20
2023-05-25T01:18:29.958Z,964.20
2023-05-25T01:19:00.924Z,964.20
2023-05-25T01:19:31.928Z,964.20
2023-05-25T01:20:10.330Z,963.90
2023-05-25T01:20:34.178Z,963.90
2023-05-25T01:21:04.880Z,964.00
2023-05-25T01:21:36.061Z,964.00
2023-05-25T01:22:07.186Z,963.90
2023-05-25T01:22:38.131Z,963.90
2023-05-25T01:23:08.876Z,963.90
2023-05-25T01:23:40.421Z,963.90
2023-05-25T01:24:11.177Z,964.20
2023-05-25T01:24:42.106Z,964.00
2023-05-25T01:25:13.724Z,964.00
2023-05-25T01:25:44.072Z,964.10
2023-05-25T01:26:14.884Z,964.10
2023-05-25T01:26:46.656Z,963.90
2023-05-25T01:27:16.961Z,963.90
2023-05-25T01:27:47.910Z,964.00
2023-05-25T01:28:19.142Z,964.00
2023-05-25T01:28:50.495Z,964.10
2023-05-25T01:29:21.070Z,964.10
2023-05-25T01:29:52.234Z,963.90
2023-05-25T01:30:23.745Z,963.90
2023-05-25T01:30:53.916Z,964.10
2023-05-25T01:31:24.976Z,964.10
2023-05-25T01:31:56.007Z,963.90
2023-05-25T01:32:26.860Z,963.90
2023-05-25T01:32:57.985Z,963.90
2023-05-25T01:33:28.935Z,963.90
2023-05-25T01:33:59.961Z,964.00
2023-05-25T01:34:32.134Z,964.00
2023-05-25T01:35:02.111Z,964.10
2023-05-25T01:35:33.880Z,964.10
2023-05-25T01:36:03.998Z,964.00
2023-05-25T01:36:35.259Z,964.00
2023-05-25T01:37:05.988Z,964.10
2023-05-25T01:37:36.991Z,964.10
2023-05-25T01:38:08.063Z,964.10
2023-05-25T01:38:39.026Z,964.10
2023-05-25T01:39:10.097Z,964.00
2023-05-25T01:39:41.727Z,964.00
2023-05-25T01:40:12.256Z,964.00
2023-05-25T01:40:43.097Z,964.10
2023-05-25T01:41:13.981Z,964.10
2023-05-25T01:41:45.042Z,963.80
2023-05-25T01:42:16.062Z,963.80
2023-05-25T01:42:47.385Z,964.10
2023-05-25T01:43:18.104Z,964.10
2023-05-25T01:43:49.020Z,964.00
2023-05-25T01:44:20.021Z,964.00
2023-05-25T01:44:51.158Z,964.10
2023-05-25T01:45:22.799Z,964.10
2023-05-25T01:45:53.018Z,964.31
2023-05-25T01:46:23.961Z,964.31
2023-05-25T01:46:55.125Z,964.00
2023-05-25T01:47:26.050Z,964.00
2023-05-25T01:47:57.335Z,964.31
2023-05-25T01:48:28.188Z,964.31
2023-05-25T01:48:58.908Z,964.20
2023-05-25T01:49:30.236Z,964.20
2023-05-25T01:50:01.963Z,964.10
2023-05-25T01:50:31.952Z,964.10
2023-05-25T01:51:02.978Z,964.10
2023-05-25T01:51:34.030Z,964.10
2023-05-25T01:52:05.223Z,964.10
2023-05-25T01:52:36.054Z,964.10
2023-05-25T01:53:07.246Z,964.20
2023-05-25T01:53:38.053Z,964.20
2023-05-25T01:54:09.010Z,964.41
2023-05-25T01:54:40.284Z,964.41
2023-05-25T01:55:11.460Z,964.00
2023-05-25T01:55:42.039Z,964.10
2023-05-25T01:56:13.094Z,964.10
2023-05-25T01:56:44.198Z,964.31
2023-05-25T01:57:15.124Z,964.31
2023-05-25T01:57:46.405Z,964.31
2023-05-25T01:58:17.453Z,964.31
2023-05-25T01:58:48.164Z,964.31
2023-05-25T01:59:19.207Z,964.31
2023-05-25T01:59:50.074Z,964.31
2023-05-25T02:00:21.986Z,964.31
2023-05-25T02:00:52.226Z,964.20
2023-05-25T02:01:23.251Z,964.20
2023-05-25T02:01:54.439Z,964.20
2023-05-25T02:02:25.365Z,964.20
2023-05-25T02:02:56.461Z,964.10
2023-05-25T02:03:27.587Z,964.10
2023-05-25T02:03:58.500Z,964.41
2023-05-25T02:04:29.700Z,964.41
2023-05-25T02:05:00.071Z,964.20
2023-05-25T02:05:31.566Z,964.20
2023-05-25T02:06:02.682Z,964.20
2023-05-25T02:06:33.123Z,964.20
2023-05-25T02:07:04.745Z,964.20
2023-05-25T02:07:35.394Z,964.20
2023-05-25T02:08:06.409Z,964.20
2023-05-25T02:08:37.257Z,964.20
2023-05-25T02:09:08.244Z,964.41
2023-05-25T02:09:39.524Z,964.41
2023-05-25T02:10:10.450Z,963.80
2023-05-25T02:10:41.133Z,964.10
2023-05-25T02:11:12.367Z,964.10
2023-05-25T02:11:43.406Z,964.00
2023-05-25T02:12:14.485Z,964.00
2023-05-25T02:12:45.485Z,964.00
2023-05-25T02:13:16.151Z,964.00
2023-05-25T02:13:47.090Z,964.31
2023-05-25T02:14:18.438Z,964.31
2023-05-25T02:14:49.333Z,964.10
2023-05-25T02:15:21.135Z,964.10
2023-05-25T02:15:51.436Z,964.10
2023-05-25T02:16:22.363Z,964.10
2023-05-25T02:16:53.401Z,964.10
2023-05-25T02:17:24.467Z,964.10
2023-05-25T02:17:55.412Z,964.10
2023-05-25T02:18:26.569Z,964.10
2023-05-25T02:18:57.128Z,964.00
2023-05-25T02:19:28.411Z,964.00
2023-05-25T02:19:59.602Z,964.31
2023-05-25T02:20:30.468Z,964.31
2023-05-25T02:21:01.082Z,964.10
2023-05-25T02:21:32.328Z,964.10
2023-05-25T02:22:03.113Z,963.90
2023-05-25T02:22:34.126Z,963.90
2023-05-25T02:23:05.182Z,964.20
2023-05-25T02:23:36.614Z,964.20
2023-05-25T02:24:07.472Z,964.20
2023-05-25T02:24:38.549Z,964.20
2023-05-25T02:25:09.977Z,964.20
2023-05-25T02:25:40.052Z,964.20
2023-05-25T02:26:11.612Z,964.10
2023-05-25T02:26:42.287Z,964.10
2023-05-25T02:27:13.150Z,964.10
2023-05-25T02:27:44.431Z,963.90
2023-05-25T02:28:15.197Z,963.90
2023-05-25T02:28:46.166Z,964.10
2023-05-25T02:29:17.471Z,964.10
2023-05-25T02:29:48.892Z,964.00
2023-05-25T02:30:19.905Z,964.00
2023-05-25T02:30:50.229Z,964.00
2023-05-25T02:31:21.357Z,964.00
2023-05-25T02:31:52.375Z,963.80
2023-05-25T02:32:23.526Z,963.80
2023-05-25T02:32:54.267Z,964.00
2023-05-25T02:33:25.220Z,964.00
2023-05-25T02:33:56.268Z,963.90
2023-05-25T02:34:27.662Z,963.90
2023-05-25T02:34:58.243Z,963.80
2023-05-25T02:35:29.772Z,963.80
2023-05-25T02:36:00.170Z,963.90
2023-05-25T02:36:31.729Z,963.90
2023-05-25T02:37:02.492Z,963.90
2023-05-25T02:37:34.812Z,963.90
2023-05-25T02:38:04.569Z,964.00
2023-05-25T02:38:36.225Z,964.00
2023-05-25T02:39:06.548Z,963.60
2023-05-25T02:39:37.464Z,963.60
2023-05-25T02:40:08.533Z,964.00
2023-05-25T02:40:39.418Z,964.00
2023-05-25T02:41:10.428Z,964.00
2023-05-25T02:41:41.331Z,963.90
2023-05-25T02:42:12.227Z,963.90
2023-05-25T02:42:43.145Z,963.90
2023-05-25T02:43:14.443Z,963.90
2023-05-25T02:43:45.973Z,963.90
2023-05-25T02:44:16.527Z,963.90
2023-05-25T02:44:47.414Z,963.90
2023-05-25T02:45:19.398Z,963.90
2023-05-25T02:45:49.517Z,964.10
2023-05-25T02:46:20.509Z,964.10
2023-05-25T02:46:51.226Z,963.90
2023-05-25T02:47:22.223Z,963.90
2023-05-25T02:47:53.629Z,964.00
2023-05-25T02:48:24.370Z,964.00
2023-05-25T02:48:55.529Z,964.00
2023-05-25T02:49:26.449Z,964.00
2023-05-25T02:49:57.449Z,964.10
2023-05-25T02:50:28.912Z,964.10
2023-05-25T02:50:59.547Z,964.51
2023-05-25T02:51:30.587Z,964.51
2023-05-25T02:52:01.488Z,964.20
2023-05-25T02:52:32.669Z,964.20
2023-05-25T02:53:03.992Z,964.10
2023-05-25T02:53:34.247Z,964.10
2023-05-25T02:54:05.530Z,964.00
2023-05-25T02:54:36.267Z,964.00
2023-05-25T02:55:07.489Z,964.20
2023-05-25T02:55:38.274Z,964.20
2023-05-25T02:56:09.387Z,964.20
2023-05-25T02:56:40.326Z,964.20
2023-05-25T02:57:11.445Z,964.20
2023-05-25T02:57:42.527Z,963.90
2023-05-25T02:58:13.606Z,963.90
2023-05-25T02:58:44.588Z,964.31
2023-05-25T02:59:15.200Z,964.31
2023-05-25T02:59:46.900Z,964.20
2023-05-25T03:00:18.002Z,964.20
2023-05-25T03:00:48.587Z,964.00
2023-05-25T03:01:19.444Z,964.00
2023-05-25T03:01:50.430Z,964.10
2023-05-25T03:02:21.359Z,964.10
2023-05-25T03:02:52.341Z,964.00
2023-05-25T03:03:23.690Z,964.00
2023-05-25T03:03:54.313Z,964.00
2023-05-25T03:04:25.683Z,964.00
2023-05-25T03:04:56.447Z,964.10
2023-05-25T03:05:27.725Z,964.10
2023-05-25T03:05:58.548Z,964.00
2023-05-25T03:06:29.273Z,964.00
2023-05-25T03:07:00.611Z,964.00
2023-05-25T03:07:31.685Z,964.00
2023-05-25T03:08:02.334Z,964.20
2023-05-25T03:08:33.525Z,964.20
2023-05-25T03:09:05.425Z,963.90
2023-05-25T03:09:35.368Z,963.90
2023-05-25T03:10:06.975Z,964.10
2023-05-25T03:10:37.369Z,964.10
2023-05-25T03:11:08.401Z,964.20
2023-05-25T03:11:39.469Z,964.20
2023-05-25T03:12:10.803Z,964.10
2023-05-25T03:12:42.010Z,964.10
2023-05-25T03:13:12.727Z,964.10
2023-05-25T03:13:43.306Z,964.31
2023-05-25T03:14:14.312Z,964.31
2023-05-25T03:14:45.793Z,963.90
2023-05-25T03:15:17.752Z,963.90
2023-05-25T03:15:47.506Z,964.20
2023-05-25T03:16:18.633Z,964.20
2023-05-25T03:16:50.420Z,964.20
2023-05-25T03:17:20.749Z,964.20
2023-05-25T03:17:51.509Z,964.10
2023-05-25T03:18:22.332Z,964.10
2023-05-25T03:18:53.715Z,964.10
2023-05-25T03:19:24.529Z,964.10
2023-05-25T03:19:55.303Z,964.20
2023-05-25T03:20:26.842Z,964.20
2023-05-25T03:20:57.246Z,964.20
2023-05-25T03:21:28.327Z,964.20
2023-05-25T03:21:59.485Z,964.00
2023-05-25T03:22:30.794Z,964.00
2023-05-25T03:23:01.594Z,964.20
2023-05-25T03:23:32.413Z,964.20
2023-05-25T03:24:03.436Z,964.20
2023-05-25T03:24:34.719Z,964.20
2023-05-25T03:25:05.888Z,964.00
2023-05-25T03:25:36.545Z,964.00
2023-05-25T03:26:07.687Z,964.10
2023-05-25T03:26:38.551Z,964.10
2023-05-25T03:27:09.379Z,964.00
2023-05-25T03:27:40.682Z,964.00
2023-05-25T03:28:11.738Z,964.31
2023-05-25T03:28:42.571Z,964.10
2023-05-25T03:29:13.709Z,964.10
2023-05-25T03:29:44.740Z,964.41
2023-05-25T03:30:16.076Z,964.41
2023-05-25T03:30:46.380Z,964.00
2023-05-25T03:31:17.388Z,964.00
2023-05-25T03:31:48.601Z,964.20
2023-05-25T03:32:19.617Z,964.20
2023-05-25T03:32:50.749Z,964.10
2023-05-25T03:33:21.730Z,964.10
2023-05-25T03:33:52.588Z,964.20
2023-05-25T03:34:23.813Z,964.20
2023-05-25T03:34:54.837Z,964.20
2023-05-25T03:35:26.427Z,964.20
2023-05-25T03:35:56.716Z,964.20
2023-05-25T03:36:27.710Z,964.20
2023-05-25T03:36:58.837Z,964.20
2023-05-25T03:37:29.333Z,964.20
2023-05-25T03:38:00.996Z,964.10
2023-05-25T03:38:31.612Z,964.10
2023-05-25T03:39:02.454Z,964.20
2023-05-25T03:39:33.408Z,964.20
2023-05-25T03:40:04.738Z,964.31
2023-05-25T03:40:36.343Z,964.31
2023-05-25T03:41:06.492Z,964.10
2023-05-25T03:41:38.636Z,964.10
2023-05-25T03:42:08.308Z,964.10
2023-05-25T03:42:39.388Z,964.10
2023-05-25T03:43:10.418Z,964.61
2023-05-25T03:43:41.629Z,964.31
2023-05-25T03:44:12.515Z,964.31
2023-05-25T03:44:43.511Z,964.10
2023-05-25T03:45:15.467Z,964.10
2023-05-25T03:45:45.727Z,964.20
2023-05-25T03:46:16.657Z,964.20
2023-05-25T03:46:47.808Z,964.00
2023-05-25T03:47:18.533Z,964.00
2023-05-25T03:47:49.880Z,964.10
2023-05-25T03:48:21.120Z,964.10
2023-05-25T03:48:51.533Z,964.31
2023-05-25T03:49:22.450Z,964.31
2023-05-25T03:49:53.927Z,964.20
2023-05-25T03:50:24.894Z,964.20
2023-05-25T03:50:55.374Z,964.20
2023-05-25T03:51:26.491Z,964.20
2023-05-25T03:51:57.599Z,964.31
2023-05-25T03:52:28.574Z,964.31
2023-05-25T03:52:59.757Z,964.31
2023-05-25T03:53:30.675Z,964.31
2023-05-25T03:54:02.298Z,964.51
2023-05-25T03:54:32.872Z,964.51
2023-05-25T03:55:04.108Z,964.31
2023-05-25T03:55:34.751Z,964.31
2023-05-25T03:56:05.854Z,964.31
2023-05-25T03:56:36.487Z,964.31
2023-05-25T03:57:07.463Z,964.20
2023-05-25T03:57:38.994Z,964.20
2023-05-25T03:58:09.629Z,964.31
2023-05-25T03:58:40.393Z,964.31
2023-05-25T03:59:11.547Z,964.41
2023-05-25T03:59:42.916Z,964.31
2023-05-25T04:00:14.498Z,964.31
2023-05-25T04:00:44.851Z,964.41
2023-05-25T04:01:15.677Z,964.41
2023-05-25T04:01:46.788Z,964.20
2023-05-25T04:02:17.650Z,964.20
2023-05-25T04:02:48.554Z,964.51
2023-05-25T04:03:19.959Z,964.51
2023-05-25T04:03:50.685Z,964.31
2023-05-25T04:04:21.621Z,964.31
2023-05-25T04:04:52.529Z,964.31
2023-05-25T04:05:24.116Z,964.31
2023-05-25T04:05:54.495Z,964.41
2023-05-25T04:06:25.578Z,964.41
2023-05-25T04:06:56.723Z,964.31
2023-05-25T04:07:27.570Z,964.31
2023-05-25T04:07:58.611Z,964.51
2023-05-25T04:08:29.988Z,964.51
2023-05-25T04:09:00.684Z,964.61
2023-05-25T04:09:31.518Z,964.61
2023-05-25T04:10:03.031Z,964.31
2023-05-25T04:10:33.884Z,964.31
2023-05-25T04:11:04.810Z,964.41
2023-05-25T04:11:35.545Z,964.41
2023-05-25T04:12:07.237Z,964.51
2023-05-25T04:12:37.929Z,964.51
2023-05-25T04:13:10.086Z,964.61
2023-05-25T04:13:39.585Z,964.61
2023-05-25T04:14:10.674Z,964.31
2023-05-25T04:14:41.680Z,964.41
2023-05-25T04:15:13.531Z,964.41
2023-05-25T04:15:44.017Z,964.51
2023-05-25T04:16:15.026Z,964.51
2023-05-25T04:16:45.813Z,964.41
2023-05-25T04:17:16.547Z,964.41
2023-05-25T04:17:47.561Z,964.41
2023-05-25T04:18:18.977Z,964.41
2023-05-25T04:18:49.539Z,964.41
2023-05-25T04:19:20.739Z,964.41
2023-05-25T04:19:51.845Z,964.51
2023-05-25T04:20:23.048Z,964.51
2023-05-25T04:20:53.529Z,964.41
2023-05-25T04:21:24.862Z,964.41
2023-05-25T04:21:55.865Z,964.41
2023-05-25T04:22:26.581Z,964.41
2023-05-25T04:22:57.583Z,964.61
2023-05-25T04:23:28.808Z,964.61
2023-05-25T04:23:59.627Z,964.61
2023-05-25T04:24:30.654Z,964.61
2023-05-25T04:25:01.688Z,964.51
2023-05-25T04:25:32.611Z,964.51
2023-05-25T04:26:03.625Z,964.20
2023-05-25T04:26:34.668Z,964.20
2023-05-25T04:27:05.602Z,964.31
2023-05-25T04:27:36.651Z,964.31
2023-05-25T04:28:07.793Z,964.61
2023-05-25T04:28:39.167Z,964.61
2023-05-25T04:29:09.877Z,964.31
2023-05-25T04:29:41.165Z,964.31
2023-05-25T04:30:12.688Z,964.41
2023-05-25T04:30:42.806Z,964.41
2023-05-25T04:31:13.944Z,964.41
2023-05-25T04:31:44.683Z,964.51
2023-05-25T04:32:15.856Z,964.51
2023-05-25T04:32:46.823Z,964.41
2023-05-25T04:33:17.899Z,964.41
2023-05-25T04:33:48.865Z,964.41
2023-05-25T04:34:19.903Z,964.41
2023-05-25T04:34:51.305Z,964.61
2023-05-25T04:35:22.215Z,964.61
2023-05-25T04:35:52.725Z,964.61
2023-05-25T04:36:24.054Z,964.61
2023-05-25T04:36:54.567Z,964.61
2023-05-25T04:37:25.922Z,964.61
2023-05-25T04:37:56.964Z,964.41
2023-05-25T04:38:27.955Z,964.41
2023-05-25T04:38:58.912Z,964.61
2023-05-25T04:39:29.841Z,964.61
2023-05-25T04:40:01.038Z,964.31
2023-05-25T04:40:31.674Z,964.31
2023-05-25T04:41:03.327Z,964.41
2023-05-25T04:41:33.803Z,964.41
2023-05-25T04:42:04.865Z,964.81
2023-05-25T04:42:35.620Z,964.81
2023-05-25T04:43:07.267Z,964.51
2023-05-25T04:43:43.917Z,964.51
2023-05-25T04:44:10.418Z,964.51
2023-05-25T04:44:40.928Z,964.51
2023-05-25T04:45:11.293Z,964.51
2023-05-25T04:45:41.963Z,964.51
2023-05-25T04:46:13.166Z,964.51
2023-05-25T04:46:44.041Z,964.71
2023-05-25T04:47:14.929Z,964.71
2023-05-25T04:47:45.985Z,964.31
2023-05-25T04:48:17.007Z,964.31
2023-05-25T04:48:47.633Z,964.41
2023-05-25T04:49:19.130Z,964.41
2023-05-25T04:49:49.753Z,964.51
2023-05-25T04:50:21.382Z,964.51
2023-05-25T04:50:51.946Z,964.71
2023-05-25T04:51:22.967Z,964.71
2023-05-25T04:51:53.963Z,964.61
2023-05-25T04:52:25.104Z,964.61
2023-05-25T04:52:56.084Z,964.61
2023-05-25T04:53:26.832Z,964.61
2023-05-25T04:53:57.830Z,964.31
2023-05-25T04:54:28.847Z,964.31
2023-05-25T04:54:59.998Z,964.51
2023-05-25T04:55:31.451Z,964.51
2023-05-25T04:56:01.609Z,964.41
2023-05-25T04:56:33.423Z,964.41
2023-05-25T04:57:03.629Z,964.41
2023-05-25T04:57:34.788Z,964.41
2023-05-25T04:58:05.870Z,964.31
2023-05-25T04:58:37.185Z,964.31
2023-05-25T04:59:07.875Z,964.20
2023-05-25T04:59:38.707Z,964.20
2023-05-25T05:00:10.634Z,964.31
2023-05-25T05:00:40.898Z,964.31
2023-05-25T05:01:11.794Z,964.20
2023-05-25T05:01:43.204Z,964.41
2023-05-25T05:02:14.249Z,964.41
2023-05-25T05:02:45.107Z,964.41
2023-05-25T05:03:15.776Z,964.41
2023-05-25T05:03:46.869Z,964.31
2023-05-25T05:04:17.808Z,964.31
2023-05-25T05:04:48.701Z,964.31
2023-05-25T05:05:20.273Z,964.31
2023-05-25T05:05:50.805Z,964.51
2023-05-25T05:06:21.871Z,964.51
2023-05-25T05:06:53.067Z,964.20
2023-05-25T05:07:23.854Z,964.20
2023-05-25T05:07:54.905Z,964.31
2023-05-25T05:08:25.748Z,964.31
2023-05-25T05:08:56.772Z,964.20
2023-05-25T05:09:27.808Z,964.20
2023-05-25T05:09:58.797Z,964.31
2023-05-25T05:10:30.250Z,964.31
2023-05-25T05:11:00.881Z,964.20
2023-05-25T05:11:31.991Z,964.20
2023-05-25T05:12:03.391Z,964.51
2023-05-25T05:12:33.668Z,964.51
2023-05-25T05:13:05.079Z,964.31
2023-05-25T05:13:35.749Z,964.31
2023-05-25T05:14:07.113Z,964.51
2023-05-25T05:14:37.804Z,964.51
2023-05-25T05:15:10.607Z,964.10
2023-05-25T05:15:40.087Z,964.10
2023-05-25T05:16:11.861Z,964.31
2023-05-25T05:16:41.957Z,964.20
2023-05-25T05:17:12.955Z,964.20
2023-05-25T05:17:44.388Z,964.31
2023-05-25T05:18:15.451Z,964.31
2023-05-25T05:18:45.851Z,964.41
2023-05-25T05:19:16.835Z,964.41
2023-05-25T05:19:47.994Z,964.41
2023-05-25T05:20:19.684Z,964.41
2023-05-25T05:20:50.146Z,964.31
2023-05-25T05:21:23.342Z,964.31
2023-05-25T05:21:52.065Z,964.61
2023-05-25T05:22:22.792Z,964.61
2023-05-25T05:22:53.820Z,964.41
2023-05-25T05:23:25.085Z,964.41
2023-05-25T05:23:55.745Z,964.41
2023-05-25T05:24:26.910Z,964.41
2023-05-25T05:24:57.807Z,964.51
2023-05-25T05:25:29.098Z,964.51
2023-05-25T05:26:00.151Z,964.51
2023-05-25T05:26:34.238Z,964.51
2023-05-25T05:27:04.001Z,964.51
2023-05-25T05:27:33.124Z,964.51
2023-05-25T05:28:04.111Z,964.31
2023-05-25T05:28:35.516Z,964.31
2023-05-25T05:29:06.032Z,964.61
2023-05-25T05:29:37.294Z,964.61
2023-05-25T05:30:08.267Z,964.41
2023-05-25T05:30:38.793Z,964.41
2023-05-25T05:31:10.309Z,964.51
2023-05-25T05:31:40.777Z,964.51
2023-05-25T05:32:11.804Z,964.51
2023-05-25T05:32:44.074Z,964.51
2023-05-25T05:33:13.989Z,964.51
2023-05-25T05:33:45.488Z,964.81
2023-05-25T05:34:15.930Z,964.81
2023-05-25T05:34:46.931Z,964.41
2023-05-25T05:35:18.850Z,964.41
2023-05-25T05:35:48.895Z,964.61
2023-05-25T05:36:19.926Z,964.61
2023-05-25T05:36:57.989Z,964.51
2023-05-25T05:37:21.767Z,964.51
2023-05-25T05:37:52.751Z,964.61
2023-05-25T05:38:24.011Z,964.61
2023-05-25T05:38:54.824Z,964.51
2023-05-25T05:39:25.814Z,964.51
2023-05-25T05:39:56.767Z,964.61
2023-05-25T05:40:28.661Z,964.61
2023-05-25T05:40:58.946Z,964.61
2023-05-25T05:41:30.028Z,964.61
2023-05-25T05:42:00.967Z,964.51
2023-05-25T05:42:32.133Z,964.51
2023-05-25T05:43:02.844Z,964.61
2023-05-25T05:43:33.855Z,964.61
2023-05-25T05:44:05.280Z,964.51
2023-05-25T05:44:36.122Z,964.51
2023-05-25T05:45:07.332Z,964.61
2023-05-25T05:45:37.944Z,964.61
2023-05-25T05:46:08.842Z,964.71
2023-05-25T05:46:41.551Z,964.71
2023-05-25T05:47:11.206Z,964.61
2023-05-25T05:47:43.205Z,964.61
2023-05-25T05:48:12.771Z,964.61
2023-05-25T05:48:44.171Z,964.41
2023-05-25T05:49:15.617Z,964.41
2023-05-25T05:49:46.116Z,964.51
2023-05-25T05:50:17.643Z,964.51
2023-05-25T05:50:47.799Z,964.71
2023-05-25T05:51:19.114Z,964.71
2023-05-25T05:51:49.896Z,964.71
2023-05-25T05:52:20.847Z,964.71
2023-05-25T05:52:52.007Z,964.81
2023-05-25T05:53:23.155Z,964.81
2023-05-25T05:53:54.247Z,964.88
2023-05-25T05:54:25.357Z,964.88
2023-05-25T05:54:56.069Z,964.81
2023-05-25T05:55:27.891Z,964.81
2023-05-25T05:55:57.912Z,964.71
2023-05-25T05:56:28.841Z,964.71
2023-05-25T05:56:59.864Z,964.81
2023-05-25T05:57:30.953Z,964.81
2023-05-25T05:58:01.841Z,964.81
2023-05-25T05:58:32.868Z,964.81
2023-05-25T05:59:04.125Z,964.71
2023-05-25T05:59:35.632Z,964.71
2023-05-25T06:00:06.613Z,964.71
2023-05-25T06:00:37.280Z,964.71
2023-05-25T06:01:07.926Z,964.71
2023-05-25T06:01:39.272Z,964.71
2023-05-25T06:02:10.347Z,964.81
2023-05-25T06:02:41.980Z,964.81
2023-05-25T06:03:12.208Z,964.81
2023-05-25T06:03:43.134Z,964.71
2023-05-25T06:04:14.364Z,964.71
2023-05-25T06:04:45.370Z,964.98
2023-05-25T06:05:16.467Z,964.98
2023-05-25T06:05:47.137Z,964.81
2023-05-25T06:06:17.938Z,964.81
2023-05-25T06:06:49.053Z,964.71
2023-05-25T06:07:20.108Z,964.71
2023-05-25T06:07:51.273Z,964.81
2023-05-25T06:08:22.449Z,964.81
2023-05-25T06:08:53.133Z,964.71
2023-05-25T06:09:23.913Z,964.71
2023-05-25T06:09:54.953Z,964.88
2023-05-25T06:10:26.474Z,964.88
2023-05-25T06:10:57.063Z,964.98
2023-05-25T06:11:28.077Z,964.98
2023-05-25T06:11:59.074Z,964.88
2023-05-25T06:12:30.354Z,964.88
2023-05-25T06:13:01.328Z,964.81
2023-05-25T06:13:32.091Z,964.81
2023-05-25T06:14:02.989Z,964.81
2023-05-25T06:14:34.030Z,964.81
2023-05-25T06:15:05.669Z,964.61
2023-05-25T06:15:36.485Z,964.61
2023-05-25T06:16:07.116Z,964.88
2023-05-25T06:16:38.077Z,964.88
2023-05-25T06:17:09.095Z,964.71
2023-05-25T06:17:40.120Z,964.71
2023-05-25T06:18:12.658Z,964.61
2023-05-25T06:18:42.371Z,964.88
2023-05-25T06:19:14.520Z,964.88
2023-05-25T06:19:44.483Z,964.81
2023-05-25T06:20:15.494Z,964.81
2023-05-25T06:20:46.228Z,964.71
2023-05-25T06:21:17.354Z,964.71
2023-05-25T06:21:48.366Z,964.81
2023-05-25T06:22:19.407Z,964.81
2023-05-25T06:22:50.325Z,964.81
2023-05-25T06:23:21.452Z,964.81
2023-05-25T06:23:52.315Z,964.71
2023-05-25T06:24:23.170Z,964.71
2023-05-25T06:24:54.266Z,964.61
2023-05-25T06:25:25.907Z,964.61
2023-05-25T06:25:56.020Z,964.71
2023-05-25T06:26:26.990Z,964.71
2023-05-25T06:26:58.038Z,964.81